Time;durP1;ratioP1;P1;durP2;ratioP2;P2;SDS_P1;SDS_P2;PMS_P1;PMS_P2;Temp;Humidity;BMP_temperature;BMP_pressure;BME280_temperature;BME280_humidity;BME280_pressure;Samples;Min_cycle;Max_cycle;Signal;HPM_P1;HPM_P2
2022/06/29 00:01:52;;;;;;;;;;;;;;;5.87;64.90;96207.25;6370991;27;20297;-68
2022/06/29 00:04:55;;;;;;;;;;;;;;;5.85;64.99;96199.50;6371378;27;20451;-69
2022/06/29 00:07:59;;;;;;;;;;;;;;;5.87;65.05;96200.28;6371616;27;20056;-68
2022/06/29 00:11:04;;;;;;;;;;;;;;;5.79;64.58;96195.47;6371513;27;19923;-68
2022/06/29 00:14:05;;;;;;;;;;;;;;;5.85;64.50;96202.94;6352437;27;19924;-68
2022/06/29 00:17:12;;;;;;;;;;;;;;;5.87;64.88;96205.50;6371348;27;19923;-68
2022/06/29 00:20:15;;;;;;;;;;;;;;;5.82;64.97;96202.28;6370460;28;19996;-69
2022/06/29 00:23:20;;;;;;;;;;;;;;;5.84;65.01;96205.66;6371535;28;19923;-68
2022/06/29 00:26:21;;;;;;;;;;;;;;;5.80;65.01;96204.13;6371050;28;19923;-68
2022/06/29 00:29:24;;;;;;;;;;;;;;;5.85;65.01;96217.78;6371294;28;19923;-68
2022/06/29 00:32:27;;;;;;;;;;;;;;;5.96;65.42;96212.00;6371071;28;19919;-69
2022/06/29 00:35:31;;;;;;;;;;;;;;;6.10;65.05;96216.41;6370120;28;20347;-68
2022/06/29 00:38:37;;;;;;;;;;;;;;;6.17;65.00;96213.38;6371331;28;20388;-68
2022/06/29 00:41:39;;;;;;;;;;;;;;;6.19;64.80;96216.72;6374149;27;20414;-68
2022/06/29 00:44:40;;;;;;;;;;;;;;;6.14;64.75;96197.84;6375493;27;20344;-69
2022/06/29 00:47:43;;;;;;;;;;;;;;;6.26;64.86;96197.16;6375760;27;20017;-68
2022/06/29 00:50:45;;;;;;;;;;;;;;;6.27;64.79;96196.22;6375598;27;20418;-67
2022/06/29 00:53:52;;;;;;;;;;;;;;;6.33;65.03;96194.19;6376116;27;20039;-67
2022/06/29 00:56:55;;;;;;;;;;;;;;;6.37;64.60;96193.06;6374959;27;19945;-68
2022/06/29 00:59:59;;;;;;;;;;;;;;;6.35;64.92;96200.16;6376135;27;19919;-68
2022/06/29 01:03:05;;;;;;;;;;;;;;;6.39;64.81;96202.50;6375838;27;19923;-68
2022/06/29 01:06:06;;;;;;;;;;;;;;;6.45;64.54;96207.34;6374881;27;20829;-69
2022/06/29 01:09:12;;;;;;;;;;;;;;;6.62;64.55;96208.97;6375521;27;20010;-68
2022/06/29 01:12:15;;;;;;;;;;;;;;;6.66;64.11;96205.25;6374711;27;19925;-68
2022/06/29 01:15:19;;;;;;;;;;;;;;;6.70;63.79;96201.50;6374727;27;19930;-69
2022/06/29 01:18:23;;;;;;;;;;;;;;;6.81;63.65;96200.88;6375397;27;19923;-67
2022/06/29 01:21:28;;;;;;;;;;;;;;;6.81;63.49;96192.19;6374592;27;19923;-69
2022/06/29 01:24:29;;;;;;;;;;;;;;;6.90;63.60;96191.63;6374395;27;19923;-69
2022/06/29 01:27:32;;;;;;;;;;;;;;;6.99;63.37;96196.28;6375435;27;19923;-68
2022/06/29 01:30:38;;;;;;;;;;;;;;;7.03;63.19;96207.41;6375103;27;19923;-69
2022/06/29 01:33:39;;;;;;;;;;;;;;;7.17;63.20;96205.63;6374183;27;19919;-68
2022/06/29 01:36:42;;;;;;;;;;;;;;;7.28;62.69;96196.28;6373871;27;19968;-68
2022/06/29 01:39:43;;;;;;;;;;;;;;;7.30;62.16;96197.00;6374216;27;19923;-67
2022/06/29 01:42:46;;;;;;;;;;;;;;;7.42;61.94;96199.69;6375088;27;19923;-68
2022/06/29 01:45:49;;;;;;;;;;;;;;;7.44;61.38;96194.34;6374061;27;20017;-68
2022/06/29 01:48:53;;;;;;;;;;;;;;;7.56;61.12;96196.22;6374732;27;19923;-68
2022/06/29 01:51:56;;;;;;;;;;;;;;;7.67;60.60;96192.06;6373223;27;19919;-67
2022/06/29 01:54:58;;;;;;;;;;;;;;;7.63;60.16;96192.25;6374139;27;19972;-69
2022/06/29 01:58:02;;;;;;;;;;;;;;;7.63;60.31;96197.50;6374096;27;19920;-68
2022/06/29 02:01:05;;;;;;;;;;;;;;;7.92;59.91;96196.56;6374552;27;19923;-68
2022/06/29 02:04:11;;;;;;;;;;;;;;;8.01;58.97;96196.81;6374253;27;19919;-68
2022/06/29 02:07:14;;;;;;;;;;;;;;;8.18;57.70;96200.06;6374460;27;19930;-67
2022/06/29 02:10:15;;;;;;;;;;;;;;;8.35;57.05;96199.81;6373636;27;19923;-68
2022/06/29 02:13:19;;;;;;;;;;;;;;;8.33;56.60;96202.53;6373325;27;20304;-68
2022/06/29 02:16:20;;;;;;;;;;;;;;;8.52;55.22;96203.94;6373224;27;19967;-69
2022/06/29 02:19:23;;;;;;;;;;;;;;;8.50;55.06;96198.81;6373361;27;19927;-68
2022/06/29 02:22:27;;;;;;;;;;;;;;;8.65;54.55;96207.44;6372945;27;19946;-68
2022/06/29 02:25:30;;;;;;;;;;;;;;;8.73;54.11;96199.03;6372649;27;20016;-68
2022/06/29 02:28:31;;;;;;;;;;;;;;;8.73;54.24;96199.03;6373581;27;20010;-68
2022/06/29 02:34:54;;;;;;;;;;;;;;;8.99;52.74;96194.63;6372602;27;19923;-67
2022/06/29 02:37:58;;;;;;;;;;;;;;;9.21;51.66;96201.84;6373522;27;20451;-68
2022/06/29 02:40:59;;;;;;;;;;;;;;;9.60;50.59;96195.56;6372815;27;19930;-68
2022/06/29 02:44:07;;;;;;;;;;;;;;;9.65;49.81;96190.81;6372564;27;19923;-68
2022/06/29 02:47:11;;;;;;;;;;;;;;;9.67;49.71;96195.94;6373257;27;19923;-68
2022/06/29 02:50:18;;;;;;;;;;;;;;;9.65;49.69;96195.22;6373095;27;19923;-68
2022/06/29 02:53:21;;;;;;;;;;;;;;;9.64;49.79;96183.03;6373106;27;19923;-68
2022/06/29 02:56:22;;;;;;;;;;;;;;;9.59;49.89;96188.59;6372243;27;20315;-67
2022/06/29 02:59:29;;;;;;;;;;;;;;;9.82;49.25;96178.22;6372657;27;19923;-68
2022/06/29 03:02:30;;;;;;;;;;;;;;;9.76;49.41;96190.00;6372705;27;19923;-68
2022/06/29 03:05:33;;;;;;;;;;;;;;;9.77;49.47;96180.38;6370825;27;19930;-67
2022/06/29 03:08:34;;;;;;;;;;;;;;;10.04;48.16;96173.06;6372223;27;19924;-68
2022/06/29 03:11:35;;;;;;;;;;;;;;;10.19;47.91;96179.00;6371552;27;19927;-68
2022/06/29 03:14:38;;;;;;;;;;;;;;;10.13;47.53;96171.56;6371366;27;19930;-67
2022/06/29 03:17:39;;;;;;;;;;;;;;;10.12;47.33;96170.72;6371622;27;20023;-68
2022/06/29 03:20:40;;;;;;;;;;;;;;;10.15;46.78;96181.97;6371629;27;19927;-68
2022/06/29 03:23:44;;;;;;;;;;;;;;;10.02;47.04;96180.25;6372382;27;19923;-67
2022/06/29 03:26:48;;;;;;;;;;;;;;;10.14;46.54;96172.41;6371341;27;20424;-68
2022/06/29 03:29:49;;;;;;;;;;;;;;;10.20;46.26;96174.59;6370958;27;19923;-69
2022/06/29 03:32:53;;;;;;;;;;;;;;;10.04;46.39;96161.72;6371473;27;20304;-68
2022/06/29 03:35:56;;;;;;;;;;;;;;;9.90;47.11;96165.38;6372080;27;19927;-68
2022/06/29 03:39:00;;;;;;;;;;;;;;;10.04;47.22;96164.34;6371459;27;19926;-68
2022/06/29 03:42:04;;;;;;;;;;;;;;;9.89;47.64;96158.44;6372168;27;20381;-68
2022/06/29 03:45:08;;;;;;;;;;;;;;;10.06;47.05;96154.56;6371747;27;19927;-68
2022/06/29 03:48:09;;;;;;;;;;;;;;;9.92;47.40;96146.88;6370587;27;19923;-68
2022/06/29 03:51:15;;;;;;;;;;;;;;;10.06;47.09;96163.28;6353737;27;19923;-69
2022/06/29 03:54:16;;;;;;;;;;;;;;;10.28;45.91;96145.97;6371552;27;19923;-68
2022/06/29 03:57:21;;;;;;;;;;;;;;;10.24;46.09;96157.63;6370626;27;19923;-68
2022/06/29 04:00:22;;;;;;;;;;;;;;;10.31;45.70;96154.44;6371223;27;20421;-69
2022/06/29 04:03:23;;;;;;;;;;;;;;;10.47;45.76;96161.16;6352467;27;20011;-67
2022/06/29 04:06:27;;;;;;;;;;;;;;;10.49;45.90;96177.69;6371312;27;19968;-68
2022/06/29 04:09:28;;;;;;;;;;;;;;;10.27;46.51;96176.66;6370627;27;19935;-68
2022/06/29 04:12:34;;;;;;;;;;;;;;;10.31;46.58;96191.25;6370534;27;19924;-67
2022/06/29 04:15:37;;;;;;;;;;;;;;;10.56;46.26;96184.16;6370502;27;20022;-67
2022/06/29 04:18:38;;;;;;;;;;;;;;;10.78;46.25;96181.56;6371196;27;19923;-68
2022/06/29 04:21:42;;;;;;;;;;;;;;;10.95;45.67;96176.78;6371163;28;19919;-68
2022/06/29 04:24:47;;;;;;;;;;;;;;;10.97;45.44;96177.50;6371313;28;20026;-68
2022/06/29 04:27:48;;;;;;;;;;;;;;;10.98;45.21;96180.03;6371227;28;19928;-68
2022/06/29 04:30:49;;;;;;;;;;;;;;;10.86;45.46;96180.13;6370114;28;19923;-68
2022/06/29 04:33:51;;;;;;;;;;;;;;;10.73;46.21;96165.28;6351794;28;19930;-68
2022/06/29 04:36:52;;;;;;;;;;;;;;;11.15;45.21;96168.19;6370247;28;19923;-68
2022/06/29 04:39:55;;;;;;;;;;;;;;;11.12;45.34;96157.03;6370268;28;19930;-69
2022/06/29 04:42:57;;;;;;;;;;;;;;;11.10;45.57;96162.44;6370379;28;20064;-68
2022/06/29 04:49:23;;;;;;;;;;;;;;;12.36;42.70;96174.22;6370622;28;19930;-68
2022/06/29 04:52:26;;;;;;;;;;;;;;;14.10;38.79;96172.47;6369615;28;19930;-68
2022/06/29 04:55:29;;;;;;;;;;;;;;;15.96;35.46;96174.47;6369713;28;19923;-68
2022/06/29 04:58:32;;;;;;;;;;;;;;;16.61;34.02;96172.41;6371071;28;19923;-68
2022/06/29 05:01:38;;;;;;;;;;;;;;;18.24;32.51;96158.28;6370666;28;19923;-68
2022/06/29 05:04:42;;;;;;;;;;;;;;;19.73;29.00;96182.81;6370735;28;19924;-68
2022/06/29 05:07:47;;;;;;;;;;;;;;;21.13;27.22;96171.16;6369490;28;19930;-68
2022/06/29 05:10:50;;;;;;;;;;;;;;;22.03;25.59;96181.69;6370511;28;19923;-68
2022/06/29 05:13:54;;;;;;;;;;;;;;;20.44;27.13;96180.06;6369608;28;20392;-67
2022/06/29 05:16:55;;;;;;;;;;;;;;;20.11;28.14;96184.78;6369450;28;19923;-67
2022/06/29 05:19:59;;;;;;;;;;;;;;;23.07;25.69;96174.09;6370430;28;19924;-67
2022/06/29 05:23:00;;;;;;;;;;;;;;;26.36;22.03;96179.59;6369060;28;19929;-67
2022/06/29 05:26:01;;;;;;;;;;;;;;;29.05;19.74;96173.75;6368865;27;19924;-67
2022/06/29 05:29:04;;;;;;;;;;;;;;;28.09;19.50;96178.16;6374532;27;19923;-67
2022/06/29 05:32:06;;;;;;;;;;;;;;;29.08;18.82;96196.84;6374243;27;19930;-67
2022/06/29 05:35:08;;;;;;;;;;;;;;;30.43;17.84;96193.13;6374172;27;19930;-67
2022/06/29 05:38:12;;;;;;;;;;;;;;;28.86;18.37;96199.22;6374276;27;19931;-67
2022/06/29 05:41:15;;;;;;;;;;;;;;;26.80;20.41;96190.56;6373858;27;19927;-67
2022/06/29 05:44:16;;;;;;;;;;;;;;;28.49;18.63;96185.78;6373666;27;19928;-67
2022/06/29 05:47:17;;;;;;;;;;;;;;;29.89;16.98;96180.81;6373720;27;19923;-68
2022/06/29 05:50:22;;;;;;;;;;;;;;;30.54;16.54;96193.28;6374620;27;20353;-68
2022/06/29 05:53:23;;;;;;;;;;;;;;;31.35;16.00;96187.69;6373844;27;20339;-68
2022/06/29 05:56:24;;;;;;;;;;;;;;;31.66;15.51;96206.13;6373212;27;20418;-67
2022/06/29 05:59:28;;;;;;;;;;;;;;;30.72;16.49;96206.69;6374028;27;19923;-67
2022/06/29 06:02:34;;;;;;;;;;;;;;;30.94;16.22;96197.84;6374173;27;20277;-67
2022/06/29 06:05:37;;;;;;;;;;;;;;;31.08;16.16;96200.03;6374209;27;19927;-66
2022/06/29 06:08:41;;;;;;;;;;;;;;;29.53;17.35;96188.97;6373552;27;20431;-66
2022/06/29 06:11:47;;;;;;;;;;;;;;;26.90;19.48;96200.88;6373234;27;20300;-67
2022/06/29 06:14:48;;;;;;;;;;;;;;;24.39;22.07;96199.19;6373167;27;20404;-67
2022/06/29 06:17:52;;;;;;;;;;;;;;;22.60;24.15;96214.91;6374018;27;19923;-68
2022/06/29 06:20:53;;;;;;;;;;;;;;;20.51;26.61;96207.72;6373138;27;19923;-67
2022/06/29 06:23:55;;;;;;;;;;;;;;;20.02;27.88;96200.03;6372788;27;19931;-68
2022/06/29 06:27:01;;;;;;;;;;;;;;;20.31;28.08;96191.31;6373705;27;19923;-68
2022/06/29 06:30:05;;;;;;;;;;;;;;;20.90;27.34;96200.63;6373771;27;19924;-67
2022/06/29 06:33:06;;;;;;;;;;;;;;;19.86;28.48;96208.09;6372674;27;19924;-68
2022/06/29 06:36:10;;;;;;;;;;;;;;;19.63;29.20;96210.66;6372744;27;19934;-68
2022/06/29 06:39:15;;;;;;;;;;;;;;;19.63;28.82;96219.50;6372706;27;19923;-67
2022/06/29 06:42:19;;;;;;;;;;;;;;;19.72;28.78;96207.81;6373448;27;19923;-67
2022/06/29 06:45:23;;;;;;;;;;;;;;;20.07;28.54;96199.47;6373263;27;19924;-68
2022/06/29 06:48:30;;;;;;;;;;;;;;;20.83;27.67;96211.19;6371908;27;19923;-68
2022/06/29 06:51:31;;;;;;;;;;;;;;;22.42;25.82;96207.31;6372720;27;20064;-67
2022/06/29 06:54:32;;;;;;;;;;;;;;;23.86;23.80;96217.78;6372137;27;19947;-67
2022/06/29 06:57:36;;;;;;;;;;;;;;;24.28;23.00;96205.16;6372941;27;20304;-67
2022/06/29 07:00:39;;;;;;;;;;;;;;;25.80;21.39;96207.16;6371298;27;20278;-67
2022/06/29 07:03:40;;;;;;;;;;;;;;;27.70;19.81;96199.16;6371711;27;19931;-67
2022/06/29 07:06:46;;;;;;;;;;;;;;;28.89;18.61;96193.34;6372730;27;19961;-67
2022/06/29 07:09:50;;;;;;;;;;;;;;;29.84;17.43;96219.53;6372773;27;20018;-67
2022/06/29 07:12:54;;;;;;;;;;;;;;;29.94;17.36;96224.34;6372204;27;20018;-66
2022/06/29 07:15:57;;;;;;;;;;;;;;;27.89;18.75;96218.97;6371242;27;20461;-67
2022/06/29 07:19:00;;;;;;;;;;;;;;;24.99;21.59;96221.69;6372636;27;19923;-67
2022/06/29 07:22:06;;;;;;;;;;;;;;;23.47;23.55;96221.88;6372154;27;19961;-67
2022/06/29 07:25:09;;;;;;;;;;;;;;;24.53;22.61;96211.69;6371957;27;19991;-67
2022/06/29 07:28:14;;;;;;;;;;;;;;;27.56;19.38;96205.75;6371350;27;19930;-67
2022/06/29 07:31:18;;;;;;;;;;;;;;;30.01;17.17;96216.06;6372308;27;19923;-68
2022/06/29 07:34:22;;;;;;;;;;;;;;;31.57;16.31;96221.25;6372128;27;19923;-68
2022/06/29 07:37:27;;;;;;;;;;;;;;;32.46;14.79;96228.47;6372027;27;20389;-67
2022/06/29 07:40:33;;;;;;;;;;;;;;;32.90;14.55;96222.16;6371773;27;19924;-67
2022/06/29 07:43:37;;;;;;;;;;;;;;;33.66;14.28;96220.16;6371874;27;20000;-67
2022/06/29 07:46:41;;;;;;;;;;;;;;;33.28;14.48;96211.09;6371563;27;19927;-67
2022/06/29 07:49:44;;;;;;;;;;;;;;;31.18;16.13;96226.56;6370278;27;19923;-67
2022/06/29 07:52:48;;;;;;;;;;;;;;;30.44;16.59;96204.81;6371841;27;20313;-67
2022/06/29 07:55:49;;;;;;;;;;;;;;;32.01;15.21;96224.06;6370691;27;20014;-66
2022/06/29 07:58:53;;;;;;;;;;;;;;;31.18;15.74;96221.13;6370748;27;19976;-67
2022/06/29 08:01:56;;;;;;;;;;;;;;;28.34;17.91;96207.00;6371338;27;19923;-68
2022/06/29 08:05:01;;;;;;;;;;;;;;;26.45;19.67;96219.81;6371455;27;19985;-66
2022/06/29 08:08:06;;;;;;;;;;;;;;;24.91;21.65;96211.16;6353273;27;20300;-67
2022/06/29 08:11:08;;;;;;;;;;;;;;;22.97;23.54;96202.28;6370379;27;19924;-67
2022/06/29 08:14:12;;;;;;;;;;;;;;;22.33;24.61;96206.56;6370870;27;19923;-67
2022/06/29 08:17:13;;;;;;;;;;;;;;;23.60;23.20;96208.53;6370207;27;19946;-67
2022/06/29 08:20:17;;;;;;;;;;;;;;;26.26;20.68;96206.19;6370965;27;19930;-67
2022/06/29 08:23:18;;;;;;;;;;;;;;;28.36;18.66;96199.47;6369974;28;19928;-67
2022/06/29 08:26:19;;;;;;;;;;;;;;;27.10;19.68;96212.34;6369781;28;20315;-66
2022/06/29 08:29:21;;;;;;;;;;;;;;;24.89;22.08;96205.13;6370369;28;19923;-67
2022/06/29 08:32:24;;;;;;;;;;;;;;;23.33;24.31;96209.41;6370975;28;19925;-67
2022/06/29 08:35:27;;;;;;;;;;;;;;;22.30;25.84;96203.44;6370807;28;19930;-67
2022/06/29 08:38:29;;;;;;;;;;;;;;;22.72;25.49;96193.78;6369946;28;20014;-67
2022/06/29 08:41:30;;;;;;;;;;;;;;;23.00;24.94;96204.59;6370658;28;19929;-66
2022/06/29 08:44:36;;;;;;;;;;;;;;;26.14;21.06;96213.28;6352249;28;19924;-68
2022/06/29 08:47:42;;;;;;;;;;;;;;;28.04;19.30;96218.59;6370609;28;19924;-67
2022/06/29 08:50:50;;;;;;;;;;;;;;;26.82;20.19;96227.09;6370544;28;19923;-68
2022/06/29 08:53:54;;;;;;;;;;;;;;;24.15;22.95;96225.59;6370768;28;19924;-67
2022/06/29 08:56:58;;;;;;;;;;;;;;;22.33;25.22;96225.34;6370642;28;20417;-67
2022/06/29 08:59:59;;;;;;;;;;;;;;;21.82;26.22;96222.63;6369780;28;20392;-68
2022/06/29 09:03:01;;;;;;;;;;;;;;;21.16;27.10;96221.63;6372180;27;19923;-67
2022/06/29 09:06:03;;;;;;;;;;;;;;;21.06;27.43;96222.72;6375388;27;19923;-68
2022/06/29 09:09:04;;;;;;;;;;;;;;;19.93;28.88;96220.59;6373589;27;19924;-68
2022/06/29 09:12:17;;;;;;;;;;;;;;;19.25;30.16;96224.59;6375139;27;19923;-67
2022/06/29 09:15:32;;;;;;;;;;;;;;;18.67;30.97;96238.91;6375098;27;19923;-67
2022/06/29 09:18:36;;;;;;;;;;;;;;;18.33;31.76;96215.88;6375040;27;19923;-68
2022/06/29 09:21:44;;;;;;;;;;;;;;;18.68;31.38;96215.75;6375313;27;20395;-68
2022/06/29 09:24:48;;;;;;;;;;;;;;;19.02;31.09;96220.94;6375226;27;20377;-67
2022/06/29 09:27:55;;;;;;;;;;;;;;;18.84;31.21;96235.28;6374938;27;20455;-67
2022/06/29 09:30:59;;;;;;;;;;;;;;;18.69;31.73;96236.91;6374977;27;19924;-67
2022/06/29 09:34:17;;;;;;;;;;;;;;;18.84;31.38;96229.94;6374172;27;19923;-68
2022/06/29 09:37:20;;;;;;;;;;;;;;;19.03;31.46;96214.63;6374885;27;19923;-68
2022/06/29 09:40:23;;;;;;;;;;;;;;;19.17;31.30;96208.59;6373846;27;19923;-68
2022/06/29 09:43:29;;;;;;;;;;;;;;;18.82;32.23;96207.97;6374822;27;19923;-68
2022/06/29 09:46:33;;;;;;;;;;;;;;;18.36;32.77;96226.19;6374033;27;20288;-67
2022/06/29 09:49:37;;;;;;;;;;;;;;;18.07;33.27;96231.13;6373849;27;19924;-68
2022/06/29 09:52:38;;;;;;;;;;;;;;;18.10;33.69;96238.81;6373584;27;19923;-67
2022/06/29 09:55:39;;;;;;;;;;;;;;;18.30;32.90;96242.00;6373965;27;19923;-67
2022/06/29 09:58:41;;;;;;;;;;;;;;;18.42;32.85;96234.53;6373272;27;20012;-68
2022/06/29 10:05:07;;;;;;;;;;;;;;;18.98;32.50;96235.63;6373188;27;20414;-67
2022/06/29 10:08:11;;;;;;;;;;;;;;;19.01;32.17;96235.28;6372868;27;20416;-68
2022/06/29 10:14:59;;;;;;;;;;;;;;;19.20;32.16;96229.59;6375904;27;19923;-68
2022/06/29 10:18:03;;;;;;;;;;;;;;;19.16;32.40;96248.75;6373446;27;19923;-68
2022/06/29 10:21:13;;;;;;;;;;;;;;;19.04;32.34;96250.94;6374985;27;20298;-69
2022/06/29 10:24:17;;;;;;;;;;;;;;;18.61;32.77;96261.72;6374540;27;19963;-67
2022/06/29 10:27:20;;;;;;;;;;;;;;;18.20;33.54;96251.97;6374096;27;20017;-69
2022/06/29 10:30:28;;;;;;;;;;;;;;;18.12;33.99;96266.09;6376258;27;20396;-69
2022/06/29 10:33:29;;;;;;;;;;;;;;;18.07;33.83;96257.75;6373591;27;19929;-68
2022/06/29 10:36:53;;;;;;;;;;;;;;;18.21;33.82;96261.63;6373471;27;19923;-68
2022/06/29 10:39:59;;;;;;;;;;;;;;;17.99;34.23;96260.38;6373433;27;19960;-68
2022/06/29 10:43:18;;;;;;;;;;;;;;;17.75;35.00;96261.94;6373175;27;20312;-69
2022/06/29 10:46:21;;;;;;;;;;;;;;;17.51;35.23;96258.13;6372386;27;20266;-69
2022/06/29 10:49:22;;;;;;;;;;;;;;;17.13;36.05;96274.50;6372859;27;19930;-71
2022/06/29 10:52:24;;;;;;;;;;;;;;;17.07;36.07;96265.34;6372719;27;19930;-71
2022/06/29 10:55:29;;;;;;;;;;;;;;;17.65;35.19;96269.19;6373376;27;20292;-71
2022/06/29 10:58:33;;;;;;;;;;;;;;;17.83;34.96;96269.94;6372927;27;19964;-68
2022/06/29 11:01:35;;;;;;;;;;;;;;;18.09;34.62;96261.09;6372949;27;19930;-68
2022/06/29 11:04:38;;;;;;;;;;;;;;;18.30;34.05;96260.66;6372352;27;19977;-68
2022/06/29 11:17:51;;;;;;;;;;;;;;;18.99;33.08;96255.94;6372576;27;20014;-68
2022/06/29 11:21:02;;;;;;;;;;;;;;;19.38;32.54;96252.56;6372886;27;20421;-67
2022/06/29 11:24:05;;;;;;;;;;;;;;;19.89;32.14;96258.47;6372688;27;20218;-68
2022/06/29 11:27:06;;;;;;;;;;;;;;;19.92;31.90;96255.47;6372484;27;19923;-68
2022/06/29 11:30:12;;;;;;;;;;;;;;;20.03;31.74;96255.06;6372691;27;19934;-67
2022/06/29 11:33:16;;;;;;;;;;;;;;;20.43;31.01;96247.88;6373103;27;19926;-67
2022/06/29 11:36:18;;;;;;;;;;;;;;;20.09;31.54;96246.38;6372288;27;19924;-68
2022/06/29 11:39:22;;;;;;;;;;;;;;;19.70;31.75;96252.53;6370803;27;20301;-67
2022/06/29 11:45:58;;;;;;;;;;;;;;;18.93;33.21;96260.09;6371730;27;19965;-68
2022/06/29 11:52:32;;;;;;;;;;;;;;;18.62;33.71;96257.22;6370507;27;20311;-68
2022/06/29 11:55:40;;;;;;;;;;;;;;;18.37;34.60;96262.50;6371177;27;19923;-68
2022/06/29 11:58:46;;;;;;;;;;;;;;;18.55;34.63;96262.38;6370222;27;20535;-68
2022/06/29 12:01:52;;;;;;;;;;;;;;;19.20;33.88;96250.94;6370074;27;19942;-67
2022/06/29 12:04:58;;;;;;;;;;;;;;;20.28;32.66;96252.31;6371848;27;19923;-68
2022/06/29 12:08:02;;;;;;;;;;;;;;;20.38;32.17;96250.22;6372571;27;20300;-68
2022/06/29 12:11:05;;;;;;;;;;;;;;;20.26;32.21;96256.97;6371180;27;19923;-68
2022/06/29 12:14:11;;;;;;;;;;;;;;;20.02;32.18;96266.78;6371111;27;19934;-68
2022/06/29 12:17:15;;;;;;;;;;;;;;;19.51;33.00;96258.22;6353080;27;19930;-68
2022/06/29 12:20:18;;;;;;;;;;;;;;;19.69;32.72;96266.06;6371143;27;19924;-67
2022/06/29 12:23:21;;;;;;;;;;;;;;;19.45;33.02;96258.91;6371324;27;20010;-68
2022/06/29 12:26:22;;;;;;;;;;;;;;;18.99;33.81;96261.25;6371182;28;20245;-68
2022/06/29 12:29:23;;;;;;;;;;;;;;;18.96;34.33;96269.59;6370230;28;19930;-68
2022/06/29 12:32:24;;;;;;;;;;;;;;;19.11;34.01;96275.94;6370206;28;19923;-69
2022/06/29 12:35:26;;;;;;;;;;;;;;;18.89;34.28;96274.78;6371468;27;19923;-68
2022/06/29 12:38:27;;;;;;;;;;;;;;;18.68;34.85;96269.88;6376730;27;19923;-68
2022/06/29 12:41:31;;;;;;;;;;;;;;;18.53;35.38;96276.84;6375842;27;19934;-66
2022/06/29 12:44:34;;;;;;;;;;;;;;;18.44;35.64;96283.16;6375538;27;20397;-68
2022/06/29 12:47:37;;;;;;;;;;;;;;;18.36;35.12;96284.81;6376075;27;19927;-69
2022/06/29 12:50:38;;;;;;;;;;;;;;;17.67;36.70;96281.34;6376156;27;19947;-69
2022/06/29 12:53:43;;;;;;;;;;;;;;;17.38;37.18;96273.69;6376031;27;19931;-68
2022/06/29 12:56:47;;;;;;;;;;;;;;;17.44;37.26;96278.38;6376511;27;20300;-68
2022/06/29 12:59:53;;;;;;;;;;;;;;;17.19;37.52;96281.84;6376492;27;19923;-68
2022/06/29 13:02:57;;;;;;;;;;;;;;;17.08;38.07;96277.63;6376415;27;20320;-67
2022/06/29 13:06:01;;;;;;;;;;;;;;;17.05;38.30;96280.59;6375158;27;19923;-69
2022/06/29 13:09:05;;;;;;;;;;;;;;;16.71;38.78;96280.44;6375614;27;20373;-69
2022/06/29 13:12:06;;;;;;;;;;;;;;;16.72;38.96;96293.53;6376150;27;20040;-69
2022/06/29 13:15:07;;;;;;;;;;;;;;;16.38;39.52;96285.41;6377941;27;20003;-68
2022/06/29 13:18:08;;;;;;;;;;;;;;;16.10;40.07;96289.91;6374076;27;20376;-67
2022/06/29 13:21:10;;;;;;;;;;;;;;;16.05;39.82;96295.66;6359303;27;20316;-68
2022/06/29 13:24:11;;;;;;;;;;;;;;;15.68;40.62;96299.19;6377008;27;20010;-68
2022/06/29 13:27:15;;;;;;;;;;;;;;;15.94;40.54;96309.13;6375655;27;19923;-68
2022/06/29 13:30:19;;;;;;;;;;;;;;;15.96;40.53;96301.84;6377442;27;20446;-68
2022/06/29 13:33:22;;;;;;;;;;;;;;;15.82;40.97;96304.97;6375087;27;19957;-68
2022/06/29 13:36:23;;;;;;;;;;;;;;;15.89;41.07;96311.38;6374385;27;20396;-67
2022/06/29 13:39:27;;;;;;;;;;;;;;;15.75;41.23;96295.94;6377121;27;19924;-68
2022/06/29 13:42:28;;;;;;;;;;;;;;;15.63;41.50;96290.78;6375909;27;19926;-69
2022/06/29 13:45:32;;;;;;;;;;;;;;;15.54;41.95;96290.81;6374796;27;19923;-68
2022/06/29 13:48:35;;;;;;;;;;;;;;;15.70;41.61;96302.50;6375650;27;19924;-68
2022/06/29 13:51:38;;;;;;;;;;;;;;;15.82;41.12;96299.66;6376107;27;19924;-68
2022/06/29 13:54:40;;;;;;;;;;;;;;;15.66;41.25;96290.50;6374602;27;19984;-68
2022/06/29 13:57:43;;;;;;;;;;;;;;;15.61;41.39;96303.34;6377742;27;19927;-68
2022/06/29 14:00:46;;;;;;;;;;;;;;;15.85;41.00;96294.06;6374911;27;20316;-69
2022/06/29 14:03:48;;;;;;;;;;;;;;;15.52;41.17;96293.63;6374300;27;19955;-68
2022/06/29 14:06:49;;;;;;;;;;;;;;;15.10;42.55;96293.16;6374832;27;19968;-68
2022/06/29 14:09:53;;;;;;;;;;;;;;;14.72;43.17;96298.34;6356081;27;20281;-68
2022/06/29 14:12:54;;;;;;;;;;;;;;;14.56;43.69;96305.97;6375033;27;19919;-68
2022/06/29 14:15:55;;;;;;;;;;;;;;;14.73;42.78;96302.66;6372843;27;20307;-67
2022/06/29 14:19:01;;;;;;;;;;;;;;;14.64;43.17;96298.19;6373975;27;19923;-68
2022/06/29 14:22:02;;;;;;;;;;;;;;;14.70;43.10;96302.91;6373285;27;19946;-68
2022/06/29 14:25:07;;;;;;;;;;;;;;;14.89;42.90;96315.34;6373555;27;20033;-68
2022/06/29 14:28:08;;;;;;;;;;;;;;;14.76;43.14;96302.38;6372394;27;19923;-69
2022/06/29 14:31:09;;;;;;;;;;;;;;;14.74;43.42;96301.66;6376249;27;20412;-68
2022/06/29 14:34:12;;;;;;;;;;;;;;;14.78;43.39;96299.59;6376975;27;20281;-68
2022/06/29 14:37:15;;;;;;;;;;;;;;;14.79;43.45;96307.38;6375250;27;20022;-68
2022/06/29 14:40:19;;;;;;;;;;;;;;;14.77;43.40;96314.63;6375002;27;19919;-68
2022/06/29 14:43:22;;;;;;;;;;;;;;;14.80;43.44;96330.25;6376429;27;20384;-68
2022/06/29 14:46:24;;;;;;;;;;;;;;;14.70;43.37;96329.41;6375411;27;19923;-68
2022/06/29 14:49:28;;;;;;;;;;;;;;;14.63;43.74;96322.13;6376204;27;20376;-67
2022/06/29 14:52:33;;;;;;;;;;;;;;;14.43;44.29;96321.25;6373231;27;19946;-67
2022/06/29 14:55:34;;;;;;;;;;;;;;;14.31;44.65;96329.31;6372137;27;19923;-67
2022/06/29 14:58:35;;;;;;;;;;;;;;;14.37;44.70;96334.03;6372251;27;19923;-67
2022/06/29 15:01:39;;;;;;;;;;;;;;;14.46;44.38;96335.03;6372732;27;20018;-68
2022/06/29 15:04:40;;;;;;;;;;;;;;;14.20;45.21;96345.28;6371846;27;20008;-67
2022/06/29 15:07:41;;;;;;;;;;;;;;;13.94;45.50;96342.28;6371221;27;19930;-69
2022/06/29 15:10:43;;;;;;;;;;;;;;;13.57;46.63;96340.16;6372933;27;20454;-69
2022/06/29 15:13:48;;;;;;;;;;;;;;;13.36;46.94;96348.13;6374544;27;19919;-68
2022/06/29 15:16:52;;;;;;;;;;;;;;;13.20;47.33;96350.34;6372395;27;19923;-68
2022/06/29 15:19:55;;;;;;;;;;;;;;;13.14;47.58;96358.78;6372678;27;19923;-68
2022/06/29 15:22:58;;;;;;;;;;;;;;;13.15;47.52;96365.72;6373398;27;19954;-69
2022/06/29 15:26:05;;;;;;;;;;;;;;;13.20;47.39;96359.09;6373650;27;19923;-69
2022/06/29 15:29:06;;;;;;;;;;;;;;;13.09;47.76;96353.03;6371647;27;19930;-69
2022/06/29 15:32:07;;;;;;;;;;;;;;;13.03;47.84;96351.75;6374299;27;20399;-69
2022/06/29 15:38:46;;;;;;;;;;;;;;;12.71;48.58;96357.88;6371954;27;19924;-67
2022/06/29 15:41:50;;;;;;;;;;;;;;;12.76;48.80;96360.13;6371761;27;19923;-68
2022/06/29 15:44:53;;;;;;;;;;;;;;;12.73;49.12;96355.09;6370545;27;19930;-68
2022/06/29 15:47:59;;;;;;;;;;;;;;;12.66;49.36;96352.13;6371798;27;20296;-68
2022/06/29 15:51:00;;;;;;;;;;;;;;;12.40;49.79;96363.94;6371151;27;19930;-68
2022/06/29 15:57:25;;;;;;;;;;;;;;;12.55;49.59;96374.09;6371548;27;19924;-68
2022/06/29 16:00:30;;;;;;;;;;;;;;;12.38;49.85;96371.16;6370652;27;20532;-69
2022/06/29 16:03:32;;;;;;;;;;;;;;;12.41;50.16;96366.47;6370729;27;19931;-68
2022/06/29 16:06:33;;;;;;;;;;;;;;;12.37;50.32;96370.31;6370684;27;19923;-67
2022/06/29 16:09:34;;;;;;;;;;;;;;;12.38;50.40;96379.91;6370531;27;19945;-68
2022/06/29 16:12:35;;;;;;;;;;;;;;;12.49;50.08;96374.59;6370074;27;19931;-68
2022/06/29 16:15:36;;;;;;;;;;;;;;;12.43;50.27;96376.91;6370419;27;19941;-68
2022/06/29 16:18:42;;;;;;;;;;;;;;;12.28;50.70;96381.59;6371214;27;19923;-68
2022/06/29 16:21:45;;;;;;;;;;;;;;;12.30;50.66;96374.41;6370551;27;19927;-68
2022/06/29 16:24:48;;;;;;;;;;;;;;;12.08;51.17;96360.25;6371084;27;19928;-68
2022/06/29 16:27:50;;;;;;;;;;;;;;;11.92;51.78;96362.47;6370196;28;20439;-67
2022/06/29 16:30:53;;;;;;;;;;;;;;;11.78;52.29;96368.78;6370143;28;19924;-68
2022/06/29 16:33:54;;;;;;;;;;;;;;;11.75;52.01;96379.56;6370221;28;19928;-68